Aérodrome :
LOGIN :

S'inscrire | Disclaimer

   EN    FR    IT 

 










Légende :    VFR   VFR Marginal   IFR   IFR Intensif   IFR Très Intensif
Visi : 
Plafond : 
>= 8 km
>= 3000ft
5 à 8 km
1000 à 3000 ft
1500m à 5 km
500 à 1000 ft
800 à 1500m
200 à 500 ft
< 800m
< 200 ft
Symboles :   Orages  Brouillard  Fortes neiges  Fortes précipitations  Vent > 20 kt
SIGMETs :   Divers  Orages  Givrage  Turbulence  Onde Orograph.  Cendres Volcan.







- Altitude de l'aérodrome : 779 ft
- Code IATA : CMF
- Voir les cartes d'approche


LFLB - Chambery / Aix-Les-Bains

DERNIER METAR :
  • 202300Z AUTO 36009KT 320V020 6000 -RA FEW023 BKN062 OVC072 04/02 Q1007

METARs EXPIRÉS :
  • 202230Z AUTO 36010KT 7000 -RA BKN054 OVC070 05/02 Q1007
  • 202200Z AUTO 35010KT 320V030 9000 FEW078 OVC094 05/01 Q1007 NOSIG
  • 202130Z AUTO 01004KT 310V060 7000 NSC 04/01 Q1006 NOSIG
  • 202100Z AUTO VRB02KT 7000 NSC 03/01 Q1006 NOSIG
  • 202030Z AUTO 05003KT 360V090 6000 NSC 03/01 Q1006 NOSIG

TAF TAF LFLB
Valide du 20 à 18h jusqu'au 21 à 18h UTC


201700Z 2018/2118 36008KT 9999 FEW020 BKN070
TEMPO 2106/2110 VRB03KT 5000 -RA SCT014 BKN040
Pas de NOTAMs connus pour ce terrain.
2 SIGMETs publiés pour la FIR Marseille (LFMM) :
 
Orages noyés dans la masse
LFMM SIGMET 5 VALID 210000/210400 LFPW
LFMM MARSEILLE FIR/UIR EMBD TS FCST WI N4115 E00845 - N4115 E00800 - N3900 E00800 - N3900 E00430 - N4200 E00430 - N4200 E00415 - N4445 E00445 - N4115 E00845 TOP FL340 STNR NC=
Orages noyés dans la masse
LFMM SIGMET 4 VALID 202100/210000 LFPW
LFMM MARSEILLE FIR/UIR EMBD TS FCST WI N3900 E00530 - N3900 E00430 - N4200 E00430 - N4215 E00315 - N4430 E00430 - N4145 E00800 - N3900 E00530 TOP FL340 STNR NC=



MET'MAP, la Météo Aéronautique d'un coup d'oeil ! - Copyright ORBIFLY Décembre 2007 - Disclaimer

ORBIFLY MET'MAP TEAM :

Programmation & Développement : Alexandra Zaïnal
Conception & Développement : Baudouin d'Aumeries
Co-Programmation & Développement : Marc-Olivier Méhu
Soutien technique & logistique : Manuel Goepfert

Contact : metmap@orbifly.com




SOURCES & CREDITS :

   NOAA